sensor_id;sensor_type;location;lat;lon;timestamp;pressure;altitude;pressure_sealevel;temperature;humidity
55550;BME280;41397;49.972;18.944;2022-11-20T00:00:52;101640.20;;;-0.19;73.96
55550;BME280;41397;49.972;18.944;2022-11-20T00:03:55;101639.27;;;-0.18;73.92
55550;BME280;41397;49.972;18.944;2022-11-20T00:06:57;101641.17;;;-0.23;73.74
55550;BME280;41397;49.972;18.944;2022-11-20T00:09:59;101630.41;;;-0.23;73.93
55550;BME280;41397;49.972;18.944;2022-11-20T00:13:00;101634.91;;;-0.24;73.86
55550;BME280;41397;49.972;18.944;2022-11-20T00:16:03;101634.98;;;-0.27;73.32
55550;BME280;41397;49.972;18.944;2022-11-20T00:19:06;101623.41;;;-0.30;73.40
55550;BME280;41397;49.972;18.944;2022-11-20T00:22:07;101621.63;;;-0.30;73.24
55550;BME280;41397;49.972;18.944;2022-11-20T00:25:08;101619.81;;;-0.29;73.06
55550;BME280;41397;49.972;18.944;2022-11-20T00:28:10;101613.74;;;-0.37;73.15
55550;BME280;41397;49.972;18.944;2022-11-20T00:31:15;101611.37;;;-0.51;72.80
55550;BME280;41397;49.972;18.944;2022-11-20T00:34:16;101615.17;;;-0.61;72.96
55550;BME280;41397;49.972;18.944;2022-11-20T00:37:17;101618.79;;;-0.62;73.28
55550;BME280;41397;49.972;18.944;2022-11-20T00:40:20;101612.46;;;-0.60;73.38
55550;BME280;41397;49.972;18.944;2022-11-20T00:43:23;101619.67;;;-0.62;73.39
55550;BME280;41397;49.972;18.944;2022-11-20T00:46:26;101619.61;;;-0.60;73.35
55550;BME280;41397;49.972;18.944;2022-11-20T00:49:28;101613.49;;;-0.65;73.20
55550;BME280;41397;49.972;18.944;2022-11-20T00:52:29;101616.66;;;-0.88;73.14
55550;BME280;41397;49.972;18.944;2022-11-20T00:55:31;101610.48;;;-0.92;73.76
55550;BME280;41397;49.972;18.944;2022-11-20T00:58:35;101603.21;;;-0.87;73.81
55550;BME280;41397;49.972;18.944;2022-11-20T01:01:37;101606.84;;;-0.90;73.71
55550;BME280;41397;49.972;18.944;2022-11-20T01:04:39;101596.98;;;-0.89;73.77
55550;BME280;41397;49.972;18.944;2022-11-20T01:07:40;101597.95;;;-0.93;73.96
55550;BME280;41397;49.972;18.944;2022-11-20T01:10:41;101596.13;;;-0.91;73.96
55550;BME280;41397;49.972;18.944;2022-11-20T01:13:43;101594.24;;;-0.87;73.91
55550;BME280;41397;49.972;18.944;2022-11-20T01:16:50;101587.93;;;-0.85;73.72
55550;BME280;41397;49.972;18.944;2022-11-20T01:19:52;101582.55;;;-0.85;73.71
55550;BME280;41397;49.972;18.944;2022-11-20T01:22:53;101587.81;;;-0.79;73.42
55550;BME280;41397;49.972;18.944;2022-11-20T01:25:54;101583.34;;;-0.80;73.35
55550;BME280;41397;49.972;18.944;2022-11-20T01:28:56;101573.48;;;-0.79;73.32
55550;BME280;41397;49.972;18.944;2022-11-20T01:31:58;101573.55;;;-0.82;72.89
55550;BME280;41397;49.972;18.944;2022-11-20T01:34:59;101577.18;;;-0.85;72.87
55550;BME280;41397;49.972;18.944;2022-11-20T01:38:00;101575.51;;;-0.89;72.96
55550;BME280;41397;49.972;18.944;2022-11-20T01:41:02;101574.64;;;-0.91;72.67
55550;BME280;41397;49.972;18.944;2022-11-20T01:44:05;101573.13;;;-1.04;72.91
55550;BME280;41397;49.972;18.944;2022-11-20T01:47:08;101574.92;;;-1.03;73.17
55550;BME280;41397;49.972;18.944;2022-11-20T01:50:17;101575.89;;;-1.07;73.11
55550;BME280;41397;49.972;18.944;2022-11-20T01:53:22;101574.27;;;-1.15;73.12
55550;BME280;41397;49.972;18.944;2022-11-20T01:56:26;101569.35;;;-1.38;73.45
55550;BME280;41397;49.972;18.944;2022-11-20T01:59:33;101587.40;;;-1.46;73.64
55550;BME280;41397;49.972;18.944;2022-11-20T02:02:36;101571.23;;;-1.43;73.75
55550;BME280;41397;49.972;18.944;2022-11-20T02:08:51;101580.95;;;-1.37;73.63
55550;BME280;41397;49.972;18.944;2022-11-20T02:11:54;101595.36;;;-1.41;73.50
55550;BME280;41397;49.972;18.944;2022-11-20T02:14:59;101596.27;;;-1.42;73.44
55550;BME280;41397;49.972;18.944;2022-11-20T02:18:01;101595.32;;;-1.40;73.55
55550;BME280;41397;49.972;18.944;2022-11-20T02:21:09;101596.31;;;-1.44;73.30
55550;BME280;41397;49.972;18.944;2022-11-20T02:24:18;101602.94;;;-1.63;73.60
55550;BME280;41397;49.972;18.944;2022-11-20T02:27:21;101598.51;;;-1.66;73.77
55550;BME280;41397;49.972;18.944;2022-11-20T02:30:27;101602.09;;;-1.67;73.68
55550;BME280;41397;49.972;18.944;2022-11-20T02:33:28;101608.24;;;-1.60;73.66
55550;BME280;41397;49.972;18.944;2022-11-20T02:36:30;101610.85;;;-1.55;73.39
55550;BME280;41397;49.972;18.944;2022-11-20T02:39:32;101608.11;;;-1.52;73.35
55550;BME280;41397;49.972;18.944;2022-11-20T02:42:36;101599.15;;;-1.53;73.25
55550;BME280;41397;49.972;18.944;2022-11-20T02:45:37;101599.99;;;-1.49;73.04
55550;BME280;41397;49.972;18.944;2022-11-20T02:48:39;101592.90;;;-1.52;73.20
55550;BME280;41397;49.972;18.944;2022-11-20T02:51:40;101590.27;;;-1.55;72.86
55550;BME280;41397;49.972;18.944;2022-11-20T02:54:43;101603.73;;;-1.58;72.81
55550;BME280;41397;49.972;18.944;2022-11-20T02:57:45;101606.37;;;-1.55;72.89
55550;BME280;41397;49.972;18.944;2022-11-20T03:00:46;101608.50;;;-1.74;72.58
55550;BME280;41397;49.972;18.944;2022-11-20T03:03:47;101596.96;;;-1.79;73.15
55550;BME280;41397;49.972;18.944;2022-11-20T03:06:52;101597.78;;;-1.75;73.28
55550;BME280;41397;49.972;18.944;2022-11-20T03:09:53;101599.45;;;-1.68;73.27
55550;BME280;41397;49.972;18.944;2022-11-20T03:12:55;101594.02;;;-1.65;73.19
55550;BME280;41397;49.972;18.944;2022-11-20T03:15:56;101600.25;;;-1.63;73.03
55550;BME280;41397;49.972;18.944;2022-11-20T03:19:00;101604.76;;;-1.65;73.10
55550;BME280;41397;49.972;18.944;2022-11-20T03:22:02;101607.80;;;-1.85;73.08
55550;BME280;41397;49.972;18.944;2022-11-20T03:25:04;101603.34;;;-1.86;73.43
55550;BME280;41397;49.972;18.944;2022-11-20T03:28:05;101605.93;;;-1.80;73.42
55550;BME280;41397;49.972;18.944;2022-11-20T03:31:12;101606.76;;;-1.76;73.34
55550;BME280;41397;49.972;18.944;2022-11-20T03:34:14;101604.88;;;-1.71;73.24
55550;BME280;41397;49.972;18.944;2022-11-20T03:37:15;101600.40;;;-1.71;73.32
55550;BME280;41397;49.972;18.944;2022-11-20T03:40:16;101602.14;;;-1.68;73.10
55550;BME280;41397;49.972;18.944;2022-11-20T03:43:17;101608.52;;;-1.75;72.97
55550;BME280;41397;49.972;18.944;2022-11-20T03:46:19;101595.98;;;-1.75;73.19
55550;BME280;41397;49.972;18.944;2022-11-20T03:49:20;101598.57;;;-1.69;72.98
55550;BME280;41397;49.972;18.944;2022-11-20T03:52:21;101594.10;;;-1.70;72.69
55550;BME280;41397;49.972;18.944;2022-11-20T03:55:26;101594.10;;;-1.70;72.67
55550;BME280;41397;49.972;18.944;2022-11-20T03:58:27;101598.53;;;-1.67;72.74
55550;BME280;41397;49.972;18.944;2022-11-20T04:01:31;101593.10;;;-1.64;72.71
55550;BME280;41397;49.972;18.944;2022-11-20T04:04:32;101590.43;;;-1.64;72.66
55550;BME280;41397;49.972;18.944;2022-11-20T04:07:34;101593.10;;;-1.64;72.39
55550;BME280;41397;49.972;18.944;2022-11-20T04:10:36;101585.91;;;-1.61;72.38
55550;BME280;41397;49.972;18.944;2022-11-20T04:13:37;101593.97;;;-1.62;72.06
55550;BME280;41397;49.972;18.944;2022-11-20T04:16:38;101579.73;;;-1.66;72.25
55550;BME280;41397;49.972;18.944;2022-11-20T04:19:43;101586.93;;;-1.68;72.29
55550;BME280;41397;49.972;18.944;2022-11-20T04:22:44;101581.57;;;-1.69;72.40
55550;BME280;41397;49.972;18.944;2022-11-20T04:25:45;101580.70;;;-1.70;72.65
55550;BME280;41397;49.972;18.944;2022-11-20T04:28:46;101575.38;;;-1.71;72.54
55550;BME280;41397;49.972;18.944;2022-11-20T04:31:51;101570.09;;;-1.76;72.70
55550;BME280;41397;49.972;18.944;2022-11-20T04:34:52;101569.33;;;-1.83;72.70
55550;BME280;41397;49.972;18.944;2022-11-20T04:37:53;101569.42;;;-1.89;72.90
55550;BME280;41397;49.972;18.944;2022-11-20T04:41:03;101571.21;;;-1.88;73.06
55550;BME280;41397;49.972;18.944;2022-11-20T04:44:05;101563.16;;;-1.88;73.12
55550;BME280;41397;49.972;18.944;2022-11-20T04:47:07;101548.81;;;-1.85;72.82
55550;BME280;41397;49.972;18.944;2022-11-20T04:50:09;101552.44;;;-1.88;72.82
55550;BME280;41397;49.972;18.944;2022-11-20T04:53:10;101555.08;;;-1.86;72.81
55550;BME280;41397;49.972;18.944;2022-11-20T04:56:12;101551.51;;;-1.85;72.76
55550;BME280;41397;49.972;18.944;2022-11-20T04:59:13;101568.34;;;-1.79;72.54
55550;BME280;41397;49.972;18.944;2022-11-20T05:02:14;101559.36;;;-1.76;72.49
55550;BME280;41397;49.972;18.944;2022-11-20T05:05:16;101561.12;;;-1.73;72.33
55550;BME280;41397;49.972;18.944;2022-11-20T05:08:17;101560.24;;;-1.75;72.11
55550;BME280;41397;49.972;18.944;2022-11-20T05:11:20;101559.36;;;-1.74;72.11
55550;BME280;41397;49.972;18.944;2022-11-20T05:14:22;101549.50;;;-1.74;72.53
55550;BME280;41397;49.972;18.944;2022-11-20T05:17:23;101550.39;;;-1.75;72.58
55550;BME280;41397;49.972;18.944;2022-11-20T05:20:26;101543.29;;;-1.77;72.36
55550;BME280;41397;49.972;18.944;2022-11-20T05:23:28;101550.45;;;-1.76;72.12
55550;BME280;41397;49.972;18.944;2022-11-20T05:26:30;101537.93;;;-1.77;72.23
55550;BME280;41397;49.972;18.944;2022-11-20T05:29:31;101537.93;;;-1.77;72.04
55550;BME280;41397;49.972;18.944;2022-11-20T05:32:34;101532.61;;;-1.79;71.85
55550;BME280;41397;49.972;18.944;2022-11-20T05:35:35;101532.63;;;-1.81;71.72
55550;BME280;41397;49.972;18.944;2022-11-20T05:38:37;101527.31;;;-1.82;71.80
55550;BME280;41397;49.972;18.944;2022-11-20T05:41:39;101522.81;;;-1.80;71.75
55550;BME280;41397;49.972;18.944;2022-11-20T05:44:43;101528.17;;;-1.80;71.71
55550;BME280;41397;49.972;18.944;2022-11-20T05:47:44;101528.20;;;-1.83;71.54
55550;BME280;41397;49.972;18.944;2022-11-20T05:50:45;101524.69;;;-1.85;71.72
55550;BME280;41397;49.972;18.944;2022-11-20T05:53:46;101525.59;;;-1.86;71.99
55550;BME280;41397;49.972;18.944;2022-11-20T05:56:51;101536.36;;;-1.88;72.03
55550;BME280;41397;49.972;18.944;2022-11-20T05:59:52;101536.36;;;-1.88;72.00
55550;BME280;41397;49.972;18.944;2022-11-20T06:02:54;101540.85;;;-1.90;71.75
55550;BME280;41397;49.972;18.944;2022-11-20T06:05:55;101536.50;;;-1.97;71.88
55550;BME280;41397;49.972;18.944;2022-11-20T06:09:00;101529.46;;;-2.03;71.80
55550;BME280;41397;49.972;18.944;2022-11-20T06:12:01;101520.47;;;-1.98;72.15
55550;BME280;41397;49.972;18.944;2022-11-20T06:15:03;101516.80;;;-1.94;72.24
55550;BME280;41397;49.972;18.944;2022-11-20T06:18:05;101517.65;;;-1.91;72.22
55550;BME280;41397;49.972;18.944;2022-11-20T06:21:15;101507.80;;;-1.90;72.03
55550;BME280;41397;49.972;18.944;2022-11-20T06:24:17;101505.06;;;-1.87;72.01
55550;BME280;41397;49.972;18.944;2022-11-20T06:27:19;101502.32;;;-1.84;72.01
55550;BME280;41397;49.972;18.944;2022-11-20T06:30:20;101506.82;;;-1.86;71.89
55550;BME280;41397;49.972;18.944;2022-11-20T06:33:21;101508.63;;;-1.87;72.01
55550;BME280;41397;49.972;18.944;2022-11-20T06:36:22;101509.41;;;-1.80;72.08
55550;BME280;41397;49.972;18.944;2022-11-20T06:39:24;101510.37;;;-1.84;72.12
55550;BME280;41397;49.972;18.944;2022-11-20T06:42:25;101511.29;;;-1.85;72.15
55550;BME280;41397;49.972;18.944;2022-11-20T06:45:26;101506.00;;;-1.90;71.88
55550;BME280;41397;49.972;18.944;2022-11-20T06:48:29;101499.65;;;-1.86;71.82
55550;BME280;41397;49.972;18.944;2022-11-20T06:51:30;101490.64;;;-1.80;72.48
55550;BME280;41397;49.972;18.944;2022-11-20T06:54:32;101485.90;;;-1.67;72.70
55550;BME280;41397;49.972;18.944;2022-11-20T06:57:34;101490.02;;;-1.51;73.12
55550;BME280;41397;49.972;18.944;2022-11-20T07:00:36;101483.33;;;-1.30;73.17
55550;BME280;41397;49.972;18.944;2022-11-20T07:03:37;101479.34;;;-1.10;74.03
55550;BME280;41397;49.972;18.944;2022-11-20T07:06:39;101481.59;;;-0.92;75.68
55550;BME280;41397;49.972;18.944;2022-11-20T07:09:42;101486.56;;;-0.75;75.51
55550;BME280;41397;49.972;18.944;2022-11-20T07:12:49;101490.55;;;-0.54;75.21
55550;BME280;41397;49.972;18.944;2022-11-20T07:15:51;101496.08;;;-0.25;75.05
55550;BME280;41397;49.972;18.944;2022-11-20T07:18:52;101497.21;;;-0.01;74.47
55550;BME280;41397;49.972;18.944;2022-11-20T07:21:54;101502.06;;;0.19;73.46
55550;BME280;41397;49.972;18.944;2022-11-20T07:24:55;101505.92;;;0.42;72.42
55550;BME280;41397;49.972;18.944;2022-11-20T07:28:00;101508.13;;;0.59;71.38
55550;BME280;41397;49.972;18.944;2022-11-20T07:31:02;101513.00;;;0.76;70.53
55550;BME280;41397;49.972;18.944;2022-11-20T07:34:03;101508.68;;;0.70;70.40
55550;BME280;41397;49.972;18.944;2022-11-20T07:37:04;101512.22;;;0.72;70.28
55550;BME280;41397;49.972;18.944;2022-11-20T07:40:06;101511.19;;;0.76;69.61
55550;BME280;41397;49.972;18.944;2022-11-20T07:43:07;101515.76;;;0.74;69.94
55550;BME280;41397;49.972;18.944;2022-11-20T07:46:11;101502.55;;;0.65;70.32
55550;BME280;41397;49.972;18.944;2022-11-20T07:49:12;101501.64;;;0.66;70.01
55550;BME280;41397;49.972;18.944;2022-11-20T07:52:13;101506.08;;;0.67;70.12
55550;BME280;41397;49.972;18.944;2022-11-20T07:55:15;101514.94;;;0.71;70.25
55550;BME280;41397;49.972;18.944;2022-11-20T07:58:16;101516.16;;;0.60;70.73
55550;BME280;41397;49.972;18.944;2022-11-20T08:01:17;101526.11;;;0.57;70.91
55550;BME280;41397;49.972;18.944;2022-11-20T08:04:19;101517.34;;;0.50;71.33
55550;BME280;41397;49.972;18.944;2022-11-20T08:07:20;101514.92;;;0.41;72.09
55550;BME280;41397;49.972;18.944;2022-11-20T08:10:25;101520.46;;;0.35;72.65
55550;BME280;41397;49.972;18.944;2022-11-20T08:13:26;101518.88;;;0.28;73.46
55550;BME280;41397;49.972;18.944;2022-11-20T08:16:45;101511.63;;;0.30;73.62
55550;BME280;41397;49.972;18.944;2022-11-20T08:19:46;101508.99;;;0.28;73.88
55550;BME280;41397;49.972;18.944;2022-11-20T08:22:48;101512.57;;;0.29;74.33
55550;BME280;41397;49.972;18.944;2022-11-20T08:25:54;101517.86;;;0.32;74.42
55550;BME280;41397;49.972;18.944;2022-11-20T08:28:56;101526.66;;;0.38;74.38
55550;BME280;41397;49.972;18.944;2022-11-20T08:31:58;101526.57;;;0.41;74.71
55550;BME280;41397;49.972;18.944;2022-11-20T08:35:04;101518.43;;;0.43;74.72
55550;BME280;41397;49.972;18.944;2022-11-20T08:38:06;101516.50;;;0.48;74.66
55550;BME280;41397;49.972;18.944;2022-11-20T08:41:07;101518.13;;;0.54;74.79
55550;BME280;41397;49.972;18.944;2022-11-20T08:44:20;101519.92;;;0.55;74.98
55550;BME280;41397;49.972;18.944;2022-11-20T08:47:21;101512.63;;;0.58;74.88
55550;BME280;41397;49.972;18.944;2022-11-20T08:50:25;101515.26;;;0.60;75.12
55550;BME280;41397;49.972;18.944;2022-11-20T08:53:35;101509.74;;;0.64;75.24
55550;BME280;41397;49.972;18.944;2022-11-20T08:56:45;101511.37;;;0.70;75.28
55550;BME280;41397;49.972;18.944;2022-11-20T08:59:46;101505.80;;;0.76;75.51
55550;BME280;41397;49.972;18.944;2022-11-20T09:02:47;101502.98;;;0.81;75.56
55550;BME280;41397;49.972;18.944;2022-11-20T09:05:49;101504.62;;;0.86;75.66
55550;BME280;41397;49.972;18.944;2022-11-20T09:08:54;101496.53;;;0.86;76.25
55550;BME280;41397;49.972;18.944;2022-11-20T09:11:57;101499.09;;;0.91;76.20
55550;BME280;41397;49.972;18.944;2022-11-20T09:14:58;101510.45;;;1.01;75.98
55550;BME280;41397;49.972;18.944;2022-11-20T09:18:02;101507.63;;;1.05;75.86
55550;BME280;41397;49.972;18.944;2022-11-20T09:21:09;101494.80;;;1.14;75.62
55550;BME280;41397;49.972;18.944;2022-11-20T09:24:11;101483.88;;;1.18;75.66
55550;BME280;41397;49.972;18.944;2022-11-20T09:27:12;101498.00;;;1.26;75.70
55550;BME280;41397;49.972;18.944;2022-11-20T09:30:14;101497.75;;;1.34;75.33
55550;BME280;41397;49.972;18.944;2022-11-20T09:33:16;101502.20;;;1.35;74.67
55550;BME280;41397;49.972;18.944;2022-11-20T09:36:17;101510.09;;;1.41;74.99
55550;BME280;41397;49.972;18.944;2022-11-20T09:39:19;101511.76;;;1.45;74.79
55550;BME280;41397;49.972;18.944;2022-11-20T09:55:14;101483.09;;;1.43;74.03
55550;BME280;41397;49.972;18.944;2022-11-20T09:58:27;101492.64;;;1.25;74.71
55550;BME280;41397;49.972;18.944;2022-11-20T10:01:33;101482.57;;;1.31;74.62
55550;BME280;41397;49.972;18.944;2022-11-20T10:04:43;101488.13;;;1.25;75.09
55550;BME280;41397;49.972;18.944;2022-11-20T10:14:23;101469.13;;;1.30;76.66
55550;BME280;41397;49.972;18.944;2022-11-20T10:20:46;101459.83;;;1.40;76.60
55550;BME280;41397;49.972;18.944;2022-11-20T10:30:16;101445.98;;;1.51;76.53
55550;BME280;41397;49.972;18.944;2022-11-20T10:33:23;101450.30;;;1.57;75.53
55550;BME280;41397;49.972;18.944;2022-11-20T10:36:34;101448.79;;;1.48;75.49
55550;BME280;41397;49.972;18.944;2022-11-20T10:42:57;101431.20;;;1.63;75.29
55550;BME280;41397;49.972;18.944;2022-11-20T10:46:11;101437.79;;;1.54;76.19
55550;BME280;41397;49.972;18.944;2022-11-20T10:49:16;101435.61;;;1.65;75.11
55550;BME280;41397;49.972;18.944;2022-11-20T10:55:46;101440.14;;;1.90;75.14
55550;BME280;41397;49.972;18.944;2022-11-20T10:59:19;101436.19;;;2.00;75.20
55550;BME280;41397;49.972;18.944;2022-11-20T11:08:35;101412.83;;;2.24;73.16
55550;BME280;41397;49.972;18.944;2022-11-20T11:11:38;101404.42;;;2.32;72.89
55550;BME280;41397;49.972;18.944;2022-11-20T11:14:46;101408.62;;;2.40;73.07
55550;BME280;41397;49.972;18.944;2022-11-20T11:17:54;101417.42;;;2.46;72.56
55550;BME280;41397;49.972;18.944;2022-11-20T11:20:57;101418.05;;;2.52;72.15
55550;BME280;41397;49.972;18.944;2022-11-20T11:24:04;101413.61;;;2.51;72.82
55550;BME280;41397;49.972;18.944;2022-11-20T11:27:14;101421.30;;;2.62;72.32
55550;BME280;41397;49.972;18.944;2022-11-20T11:30:19;101428.20;;;2.69;72.13
55550;BME280;41397;49.972;18.944;2022-11-20T11:33:27;101419.76;;;2.78;72.33
55550;BME280;41397;49.972;18.944;2022-11-20T11:36:28;101407.01;;;2.82;71.27
55550;BME280;41397;49.972;18.944;2022-11-20T11:39:32;101407.74;;;2.85;70.63
55550;BME280;41397;49.972;18.944;2022-11-20T11:42:34;101409.83;;;2.79;70.06
55550;BME280;41397;49.972;18.944;2022-11-20T11:45:36;101407.13;;;2.79;70.35
55550;BME280;41397;49.972;18.944;2022-11-20T11:48:38;101402.47;;;2.82;70.05
55550;BME280;41397;49.972;18.944;2022-11-20T11:54:58;101393.75;;;2.76;71.13
55550;BME280;41397;49.972;18.944;2022-11-20T12:07:47;101375.46;;;2.82;72.45
55550;BME280;41397;49.972;18.944;2022-11-20T12:11:03;101370.58;;;2.92;72.27
55550;BME280;41397;49.972;18.944;2022-11-20T12:14:19;101368.75;;;2.93;72.22
55550;BME280;41397;49.972;18.944;2022-11-20T12:17:30;101372.94;;;3.00;71.70
55550;BME280;41397;49.972;18.944;2022-11-20T12:20:38;101355.50;;;3.08;71.47
55550;BME280;41397;49.972;18.944;2022-11-20T12:30:12;101336.02;;;3.00;71.10
55550;BME280;41397;49.972;18.944;2022-11-20T12:39:41;101338.27;;;3.11;70.95
55550;BME280;41397;49.972;18.944;2022-11-20T13:02:33;101314.24;;;3.25;70.81
55550;BME280;41397;49.972;18.944;2022-11-20T13:05:43;101308.15;;;3.20;71.02
55550;BME280;41397;49.972;18.944;2022-11-20T13:08:55;101297.33;;;3.20;71.39
55550;BME280;41397;49.972;18.944;2022-11-20T13:12:05;101296.24;;;3.24;71.41
55550;BME280;41397;49.972;18.944;2022-11-20T13:18:21;101283.22;;;3.34;71.83
55550;BME280;41397;49.972;18.944;2022-11-20T13:24:34;101280.56;;;3.32;71.47
55550;BME280;41397;49.972;18.944;2022-11-20T13:30:50;101283.27;;;3.32;71.63
55550;BME280;41397;49.972;18.944;2022-11-20T13:37:36;101266.13;;;3.33;71.93
55550;BME280;41397;49.972;18.944;2022-11-20T13:44:04;101268.61;;;3.18;72.30
55550;BME280;41397;49.972;18.944;2022-11-20T13:53:54;101255.97;;;3.18;73.01
55550;BME280;41397;49.972;18.944;2022-11-20T14:00:28;101270.99;;;3.25;72.78
55550;BME280;41397;49.972;18.944;2022-11-20T14:03:43;101252.80;;;3.29;72.66
55550;BME280;41397;49.972;18.944;2022-11-20T14:06:59;101260.05;;;3.28;72.79
55550;BME280;41397;49.972;18.944;2022-11-20T14:20:49;101264.48;;;3.29;72.88
55550;BME280;41397;49.972;18.944;2022-11-20T14:27:24;101258.30;;;3.27;73.53
55550;BME280;41397;49.972;18.944;2022-11-20T14:33:46;101259.35;;;3.23;74.00
55550;BME280;41397;49.972;18.944;2022-11-20T14:36:52;101259.50;;;3.20;74.42
55550;BME280;41397;49.972;18.944;2022-11-20T14:39:57;101257.80;;;3.18;74.57
55550;BME280;41397;49.972;18.944;2022-11-20T14:43:04;101245.90;;;3.22;74.71
55550;BME280;41397;49.972;18.944;2022-11-20T14:46:09;101251.20;;;3.25;74.68
55550;BME280;41397;49.972;18.944;2022-11-20T14:49:11;101243.09;;;3.25;75.07
55550;BME280;41397;49.972;18.944;2022-11-20T14:52:18;101237.73;;;3.23;74.76
55550;BME280;41397;49.972;18.944;2022-11-20T14:55:31;101244.10;;;3.22;74.67
55550;BME280;41397;49.972;18.944;2022-11-20T14:58:33;101236.05;;;3.21;74.75
55550;BME280;41397;49.972;18.944;2022-11-20T15:01:35;101228.81;;;3.21;74.71
55550;BME280;41397;49.972;18.944;2022-11-20T15:04:48;101222.48;;;3.22;74.89
55550;BME280;41397;49.972;18.944;2022-11-20T15:14:15;101207.13;;;3.23;75.00
55550;BME280;41397;49.972;18.944;2022-11-20T15:17:17;101227.75;;;3.25;75.12
55550;BME280;41397;49.972;18.944;2022-11-20T15:20:18;101228.55;;;3.27;75.30
55550;BME280;41397;49.972;18.944;2022-11-20T15:23:19;101214.95;;;3.29;75.42
55550;BME280;41397;49.972;18.944;2022-11-20T15:26:24;101223.94;;;3.29;75.75
55550;BME280;41397;49.972;18.944;2022-11-20T15:29:26;101217.52;;;3.32;76.24
55550;BME280;41397;49.972;18.944;2022-11-20T15:32:27;101229.20;;;3.32;76.20
55550;BME280;41397;49.972;18.944;2022-11-20T15:35:29;101224.90;;;3.28;76.39
55550;BME280;41397;49.972;18.944;2022-11-20T15:42:08;101215.97;;;3.26;76.31
55550;BME280;41397;49.972;18.944;2022-11-20T15:45:49;101227.60;;;3.28;76.47
55550;BME280;41397;49.972;18.944;2022-11-20T15:48:56;101214.08;;;3.28;76.34
55550;BME280;41397;49.972;18.944;2022-11-20T15:52:04;101219.55;;;3.27;76.72
55550;BME280;41397;49.972;18.944;2022-11-20T15:55:09;101222.11;;;3.30;76.63
55550;BME280;41397;49.972;18.944;2022-11-20T15:58:11;101224.81;;;3.30;76.67
55550;BME280;41397;49.972;18.944;2022-11-20T16:01:15;101216.70;;;3.30;76.63
55550;BME280;41397;49.972;18.944;2022-11-20T16:04:19;101219.35;;;3.31;76.73
55550;BME280;41397;49.972;18.944;2022-11-20T16:07:23;101212.26;;;3.29;76.39
55550;BME280;41397;49.972;18.944;2022-11-20T16:10:27;101220.55;;;3.24;76.70
55550;BME280;41397;49.972;18.944;2022-11-20T16:13:31;101223.94;;;3.29;76.72
55550;BME280;41397;49.972;18.944;2022-11-20T16:16:44;101212.20;;;3.30;76.78
55550;BME280;41397;49.972;18.944;2022-11-20T16:19:46;101222.20;;;3.28;77.29
55550;BME280;41397;49.972;18.944;2022-11-20T16:22:47;101224.09;;;3.26;77.52
55550;BME280;41397;49.972;18.944;2022-11-20T16:25:49;101220.37;;;3.29;77.58
55550;BME280;41397;49.972;18.944;2022-11-20T16:28:51;101229.30;;;3.31;77.97
55550;BME280;41397;49.972;18.944;2022-11-20T16:31:52;101213.80;;;3.34;77.90
55550;BME280;41397;49.972;18.944;2022-11-20T16:34:53;101220.30;;;3.30;78.55
55550;BME280;41397;49.972;18.944;2022-11-20T16:37:57;101211.20;;;3.33;78.63
55550;BME280;41397;49.972;18.944;2022-11-20T16:41:02;101205.84;;;3.31;78.75
55550;BME280;41397;49.972;18.944;2022-11-20T16:44:08;101204.77;;;3.36;78.63
55550;BME280;41397;49.972;18.944;2022-11-20T16:47:10;101204.77;;;3.36;78.92
55550;BME280;41397;49.972;18.944;2022-11-20T16:50:15;101213.88;;;3.33;79.32
55550;BME280;41397;49.972;18.944;2022-11-20T16:53:21;101223.14;;;3.27;80.08
55550;BME280;41397;49.972;18.944;2022-11-20T16:56:25;101221.18;;;3.31;80.10
55550;BME280;41397;49.972;18.944;2022-11-20T16:59:27;101221.05;;;3.34;79.99
55550;BME280;41397;49.972;18.944;2022-11-20T17:02:28;101228.20;;;3.35;80.68
55550;BME280;41397;49.972;18.944;2022-11-20T17:05:30;101228.05;;;3.38;80.63
55550;BME280;41397;49.972;18.944;2022-11-20T17:08:31;101218.00;;;3.42;80.37
55550;BME280;41397;49.972;18.944;2022-11-20T17:11:33;101225.15;;;3.43;80.35
55550;BME280;41397;49.972;18.944;2022-11-20T17:14:35;101222.53;;;3.41;80.11
55550;BME280;41397;49.972;18.944;2022-11-20T17:17:36;101232.39;;;3.42;80.11
55550;BME280;41397;49.972;18.944;2022-11-20T17:20:37;101221.78;;;3.38;80.01
55550;BME280;41397;49.972;18.944;2022-11-20T17:23:41;101213.80;;;3.34;80.32
55550;BME280;41397;49.972;18.944;2022-11-20T17:26:44;101212.26;;;3.29;80.09
55550;BME280;41397;49.972;18.944;2022-11-20T17:29:45;101214.95;;;3.29;79.92
55550;BME280;41397;49.972;18.944;2022-11-20T17:32:46;101216.84;;;3.27;79.91
55550;BME280;41397;49.972;18.944;2022-11-20T17:35:48;101218.88;;;3.22;80.18
55550;BME280;41397;49.972;18.944;2022-11-20T17:38:49;101217.27;;;3.18;80.47
55550;BME280;41397;49.972;18.944;2022-11-20T17:41:50;101215.63;;;3.14;80.47
55550;BME280;41397;49.972;18.944;2022-11-20T17:45:03;101208.95;;;3.02;81.26
55550;BME280;41397;49.972;18.944;2022-11-20T17:48:05;101208.27;;;2.97;81.65
55550;BME280;41397;49.972;18.944;2022-11-20T17:51:06;101214.91;;;2.89;82.06
55550;BME280;41397;49.972;18.944;2022-11-20T17:54:09;101214.54;;;2.97;81.85
55550;BME280;41397;49.972;18.944;2022-11-20T17:57:11;101209.27;;;2.94;81.62
55550;BME280;41397;49.972;18.944;2022-11-20T18:00:24;101207.26;;;2.79;82.56
55550;BME280;41397;49.972;18.944;2022-11-20T18:03:26;101203.33;;;2.86;82.44
55550;BME280;41397;49.972;18.944;2022-11-20T18:06:29;101198.84;;;2.86;81.87
55550;BME280;41397;49.972;18.944;2022-11-20T18:09:30;101207.72;;;2.88;81.87
55550;BME280;41397;49.972;18.944;2022-11-20T18:12:31;101208.72;;;2.86;81.62
55550;BME280;41397;49.972;18.944;2022-11-20T18:15:33;101206.03;;;2.86;81.31
55550;BME280;41397;49.972;18.944;2022-11-20T18:18:34;101197.93;;;2.86;81.29